sensor_id;sensor_type;location;lat;lon;timestamp;P1;durP1;ratioP1;P2;durP2;ratioP2
73599;SDS011;61877;48.246;9.220;2023-03-11T00:01:30;6.57;;;3.50;;
73599;SDS011;61877;48.246;9.220;2023-03-11T00:03:56;8.67;;;4.50;;
73599;SDS011;61877;48.246;9.220;2023-03-11T00:06:22;7.43;;;3.33;;
73599;SDS011;61877;48.246;9.220;2023-03-11T00:08:48;7.40;;;3.90;;
73599;SDS011;61877;48.246;9.220;2023-03-11T00:11:13;7.87;;;4.00;;
73599;SDS011;61877;48.246;9.220;2023-03-11T00:13:38;7.60;;;3.90;;
73599;SDS011;61877;48.246;9.220;2023-03-11T00:16:05;7.78;;;3.25;;
73599;SDS011;61877;48.246;9.220;2023-03-11T00:18:31;7.47;;;3.67;;
73599;SDS011;61877;48.246;9.220;2023-03-11T00:20:57;8.27;;;4.15;;
73599;SDS011;61877;48.246;9.220;2023-03-11T00:23:23;8.50;;;4.10;;
73599;SDS011;61877;48.246;9.220;2023-03-11T00:25:50;8.98;;;3.88;;
73599;SDS011;61877;48.246;9.220;2023-03-11T00:28:15;8.15;;;3.92;;
73599;SDS011;61877;48.246;9.220;2023-03-11T00:30:41;7.20;;;3.70;;
73599;SDS011;61877;48.246;9.220;2023-03-11T00:33:09;7.72;;;3.85;;
73599;SDS011;61877;48.246;9.220;2023-03-11T00:35:35;7.28;;;3.38;;
73599;SDS011;61877;48.246;9.220;2023-03-11T00:38:01;7.67;;;4.07;;
73599;SDS011;61877;48.246;9.220;2023-03-11T00:40:29;7.30;;;3.80;;
73599;SDS011;61877;48.246;9.220;2023-03-11T00:42:56;6.95;;;3.65;;
73599;SDS011;61877;48.246;9.220;2023-03-11T00:45:22;7.28;;;3.58;;
73599;SDS011;61877;48.246;9.220;2023-03-11T00:47:48;7.23;;;3.93;;
73599;SDS011;61877;48.246;9.220;2023-03-11T00:50:17;7.28;;;3.90;;
73599;SDS011;61877;48.246;9.220;2023-03-11T00:52:43;7.45;;;4.00;;
73599;SDS011;61877;48.246;9.220;2023-03-11T00:55:09;6.77;;;3.80;;
73599;SDS011;61877;48.246;9.220;2023-03-11T00:57:37;7.95;;;3.80;;
73599;SDS011;61877;48.246;9.220;2023-03-11T01:00:03;7.53;;;3.83;;
73599;SDS011;61877;48.246;9.220;2023-03-11T01:02:28;6.55;;;3.53;;
73599;SDS011;61877;48.246;9.220;2023-03-11T01:04:54;7.70;;;3.77;;
73599;SDS011;61877;48.246;9.220;2023-03-11T01:07:21;7.78;;;4.10;;
73599;SDS011;61877;48.246;9.220;2023-03-11T01:09:46;6.65;;;3.42;;
73599;SDS011;61877;48.246;9.220;2023-03-11T01:12:12;6.63;;;3.50;;
73599;SDS011;61877;48.246;9.220;2023-03-11T01:14:37;7.13;;;3.93;;
73599;SDS011;61877;48.246;9.220;2023-03-11T01:17:03;7.20;;;3.90;;
73599;SDS011;61877;48.246;9.220;2023-03-11T01:19:28;6.53;;;3.47;;
73599;SDS011;61877;48.246;9.220;2023-03-11T01:21:54;7.20;;;3.40;;
73599;SDS011;61877;48.246;9.220;2023-03-11T01:24:20;7.00;;;3.93;;
73599;SDS011;61877;48.246;9.220;2023-03-11T01:26:46;6.57;;;3.47;;
73599;SDS011;61877;48.246;9.220;2023-03-11T01:29:11;7.27;;;3.93;;
73599;SDS011;61877;48.246;9.220;2023-03-11T01:31:36;6.40;;;3.47;;
73599;SDS011;61877;48.246;9.220;2023-03-11T01:34:02;6.82;;;3.35;;
73599;SDS011;61877;48.246;9.220;2023-03-11T01:36:27;6.87;;;3.63;;
73599;SDS011;61877;48.246;9.220;2023-03-11T01:38:52;6.57;;;3.57;;
73599;SDS011;61877;48.246;9.220;2023-03-11T01:41:19;7.23;;;3.40;;
73599;SDS011;61877;48.246;9.220;2023-03-11T01:43:49;6.90;;;3.70;;
73599;SDS011;61877;48.246;9.220;2023-03-11T01:46:17;7.47;;;3.95;;
73599;SDS011;61877;48.246;9.220;2023-03-11T01:48:45;6.97;;;3.78;;
73599;SDS011;61877;48.246;9.220;2023-03-11T01:51:12;6.73;;;3.40;;
73599;SDS011;61877;48.246;9.220;2023-03-11T01:53:38;6.78;;;3.45;;
73599;SDS011;61877;48.246;9.220;2023-03-11T01:56:03;6.85;;;3.50;;
73599;SDS011;61877;48.246;9.220;2023-03-11T01:58:32;6.40;;;3.40;;
73599;SDS011;61877;48.246;9.220;2023-03-11T02:01:00;6.95;;;3.70;;
73599;SDS011;61877;48.246;9.220;2023-03-11T02:03:27;7.07;;;4.00;;
73599;SDS011;61877;48.246;9.220;2023-03-11T02:05:55;6.90;;;3.65;;
73599;SDS011;61877;48.246;9.220;2023-03-11T02:08:21;6.75;;;3.70;;
73599;SDS011;61877;48.246;9.220;2023-03-11T02:10:47;7.43;;;3.60;;
73599;SDS011;61877;48.246;9.220;2023-03-11T02:13:16;7.43;;;3.70;;
73599;SDS011;61877;48.246;9.220;2023-03-11T02:15:43;7.38;;;3.63;;
73599;SDS011;61877;48.246;9.220;2023-03-11T02:18:09;7.00;;;3.60;;
73599;SDS011;61877;48.246;9.220;2023-03-11T02:20:39;8.25;;;3.60;;
73599;SDS011;61877;48.246;9.220;2023-03-11T02:23:11;7.47;;;3.80;;
73599;SDS011;61877;48.246;9.220;2023-03-11T02:25:38;8.50;;;3.90;;
73599;SDS011;61877;48.246;9.220;2023-03-11T02:28:09;7.38;;;3.88;;
73599;SDS011;61877;48.246;9.220;2023-03-11T02:30:38;6.78;;;3.50;;
73599;SDS011;61877;48.246;9.220;2023-03-11T02:33:05;8.13;;;3.83;;
73599;SDS011;61877;48.246;9.220;2023-03-11T02:35:31;8.13;;;3.47;;
73599;SDS011;61877;48.246;9.220;2023-03-11T02:37:57;7.15;;;3.40;;
73599;SDS011;61877;48.246;9.220;2023-03-11T02:40:27;7.73;;;3.50;;
73599;SDS011;61877;48.246;9.220;2023-03-11T02:43:01;7.03;;;3.70;;
73599;SDS011;61877;48.246;9.220;2023-03-11T02:45:31;6.70;;;3.43;;
73599;SDS011;61877;48.246;9.220;2023-03-11T02:47:57;6.13;;;3.00;;
73599;SDS011;61877;48.246;9.220;2023-03-11T02:50:24;7.93;;;3.92;;
73599;SDS011;61877;48.246;9.220;2023-03-11T02:52:52;7.03;;;3.17;;
73599;SDS011;61877;48.246;9.220;2023-03-11T02:55:18;7.80;;;4.10;;
73599;SDS011;61877;48.246;9.220;2023-03-11T02:57:44;7.20;;;3.55;;
73599;SDS011;61877;48.246;9.220;2023-03-11T03:00:11;7.00;;;3.90;;
73599;SDS011;61877;48.246;9.220;2023-03-11T03:02:39;7.82;;;3.53;;
73599;SDS011;61877;48.246;9.220;2023-03-11T03:05:05;6.97;;;3.77;;
73599;SDS011;61877;48.246;9.220;2023-03-11T03:07:31;6.78;;;3.45;;
73599;SDS011;61877;48.246;9.220;2023-03-11T03:09:57;7.88;;;3.70;;
73599;SDS011;61877;48.246;9.220;2023-03-11T03:12:23;7.33;;;4.03;;
73599;SDS011;61877;48.246;9.220;2023-03-11T03:14:48;6.47;;;3.20;;
73599;SDS011;61877;48.246;9.220;2023-03-11T03:17:13;7.50;;;3.90;;
73599;SDS011;61877;48.246;9.220;2023-03-11T03:19:40;7.07;;;3.97;;
73599;SDS011;61877;48.246;9.220;2023-03-11T03:22:06;7.38;;;3.80;;
73599;SDS011;61877;48.246;9.220;2023-03-11T03:24:31;6.97;;;3.47;;
73599;SDS011;61877;48.246;9.220;2023-03-11T03:26:56;8.00;;;4.10;;
73599;SDS011;61877;48.246;9.220;2023-03-11T03:29:22;6.80;;;3.73;;
73599;SDS011;61877;48.246;9.220;2023-03-11T03:31:47;6.77;;;3.93;;
73599;SDS011;61877;48.246;9.220;2023-03-11T03:34:12;7.75;;;3.90;;
73599;SDS011;61877;48.246;9.220;2023-03-11T03:36:39;7.20;;;3.43;;
73599;SDS011;61877;48.246;9.220;2023-03-11T03:39:05;7.07;;;3.90;;
73599;SDS011;61877;48.246;9.220;2023-03-11T03:41:30;7.30;;;3.60;;
73599;SDS011;61877;48.246;9.220;2023-03-11T03:43:56;7.40;;;3.95;;
73599;SDS011;61877;48.246;9.220;2023-03-11T03:46:22;7.30;;;3.83;;
73599;SDS011;61877;48.246;9.220;2023-03-11T03:48:47;7.60;;;4.10;;
73599;SDS011;61877;48.246;9.220;2023-03-11T03:51:13;10.07;;;5.23;;
73599;SDS011;61877;48.246;9.220;2023-03-11T03:53:40;8.02;;;4.05;;
73599;SDS011;61877;48.246;9.220;2023-03-11T03:56:06;6.90;;;3.78;;
73599;SDS011;61877;48.246;9.220;2023-03-11T03:58:34;7.25;;;3.83;;
73599;SDS011;61877;48.246;9.220;2023-03-11T04:00:59;7.20;;;4.00;;
73599;SDS011;61877;48.246;9.220;2023-03-11T04:03:25;7.00;;;3.40;;
73599;SDS011;61877;48.246;9.220;2023-03-11T04:05:51;7.47;;;3.70;;
73599;SDS011;61877;48.246;9.220;2023-03-11T04:08:16;6.70;;;3.57;;
73599;SDS011;61877;48.246;9.220;2023-03-11T04:10:43;6.38;;;3.42;;
73599;SDS011;61877;48.246;9.220;2023-03-11T04:13:09;7.03;;;3.53;;
73599;SDS011;61877;48.246;9.220;2023-03-11T04:15:36;7.30;;;3.80;;
73599;SDS011;61877;48.246;9.220;2023-03-11T04:18:01;7.78;;;4.03;;
73599;SDS011;61877;48.246;9.220;2023-03-11T04:20:27;7.67;;;3.80;;
73599;SDS011;61877;48.246;9.220;2023-03-11T04:22:52;7.20;;;3.50;;
73599;SDS011;61877;48.246;9.220;2023-03-11T04:25:17;6.88;;;3.60;;
73599;SDS011;61877;48.246;9.220;2023-03-11T04:27:44;8.53;;;3.47;;
73599;SDS011;61877;48.246;9.220;2023-03-11T04:30:10;7.10;;;3.72;;
73599;SDS011;61877;48.246;9.220;2023-03-11T04:32:36;6.83;;;3.50;;
73599;SDS011;61877;48.246;9.220;2023-03-11T04:35:02;7.03;;;3.88;;
73599;SDS011;61877;48.246;9.220;2023-03-11T04:37:28;6.50;;;3.40;;
73599;SDS011;61877;48.246;9.220;2023-03-11T04:39:53;7.37;;;3.80;;
73599;SDS011;61877;48.246;9.220;2023-03-11T04:42:19;7.77;;;3.73;;
73599;SDS011;61877;48.246;9.220;2023-03-11T04:44:46;7.55;;;4.03;;
73599;SDS011;61877;48.246;9.220;2023-03-11T04:47:11;7.10;;;4.07;;
73599;SDS011;61877;48.246;9.220;2023-03-11T04:49:36;8.77;;;3.80;;
73599;SDS011;61877;48.246;9.220;2023-03-11T04:52:02;7.47;;;3.57;;
73599;SDS011;61877;48.246;9.220;2023-03-11T04:54:28;6.80;;;3.70;;
73599;SDS011;61877;48.246;9.220;2023-03-11T04:56:53;7.47;;;3.80;;
73599;SDS011;61877;48.246;9.220;2023-03-11T04:59:18;7.77;;;4.07;;
73599;SDS011;61877;48.246;9.220;2023-03-11T05:01:45;6.93;;;4.00;;
73599;SDS011;61877;48.246;9.220;2023-03-11T05:04:11;9.30;;;4.10;;
73599;SDS011;61877;48.246;9.220;2023-03-11T05:06:36;8.13;;;3.77;;
73599;SDS011;61877;48.246;9.220;2023-03-11T05:09:01;7.77;;;3.60;;
73599;SDS011;61877;48.246;9.220;2023-03-11T05:11:27;7.07;;;3.93;;
73599;SDS011;61877;48.246;9.220;2023-03-11T05:13:52;7.80;;;3.70;;
73599;SDS011;61877;48.246;9.220;2023-03-11T05:16:17;7.57;;;3.53;;
73599;SDS011;61877;48.246;9.220;2023-03-11T05:18:44;7.90;;;4.00;;
73599;SDS011;61877;48.246;9.220;2023-03-11T05:21:09;6.97;;;3.85;;
73599;SDS011;61877;48.246;9.220;2023-03-11T05:23:35;6.90;;;3.60;;
73599;SDS011;61877;48.246;9.220;2023-03-11T05:26:00;8.35;;;3.63;;
73599;SDS011;61877;48.246;9.220;2023-03-11T05:28:26;7.40;;;3.73;;
73599;SDS011;61877;48.246;9.220;2023-03-11T05:30:51;7.30;;;4.10;;
73599;SDS011;61877;48.246;9.220;2023-03-11T05:33:16;8.60;;;3.97;;
73599;SDS011;61877;48.246;9.220;2023-03-11T05:35:43;7.83;;;4.10;;
73599;SDS011;61877;48.246;9.220;2023-03-11T05:38:08;19.40;;;9.25;;
73599;SDS011;61877;48.246;9.220;2023-03-11T05:40:34;9.53;;;5.33;;
73599;SDS011;61877;48.246;9.220;2023-03-11T05:42:59;9.35;;;5.10;;
73599;SDS011;61877;48.246;9.220;2023-03-11T05:45:24;7.37;;;4.17;;
73599;SDS011;61877;48.246;9.220;2023-03-11T05:47:50;7.03;;;4.43;;
73599;SDS011;61877;48.246;9.220;2023-03-11T05:50:15;8.57;;;5.30;;
73599;SDS011;61877;48.246;9.220;2023-03-11T05:52:42;7.43;;;4.20;;
73599;SDS011;61877;48.246;9.220;2023-03-11T05:55:08;8.13;;;4.15;;
73599;SDS011;61877;48.246;9.220;2023-03-11T05:57:34;7.38;;;4.20;;
73599;SDS011;61877;48.246;9.220;2023-03-11T05:59:59;7.27;;;4.00;;
73599;SDS011;61877;48.246;9.220;2023-03-11T06:02:25;8.30;;;4.30;;
73599;SDS011;61877;48.246;9.220;2023-03-11T06:04:50;7.63;;;3.83;;
73599;SDS011;61877;48.246;9.220;2023-03-11T06:07:15;8.07;;;4.70;;
73599;SDS011;61877;48.246;9.220;2023-03-11T06:09:42;8.47;;;4.23;;
73599;SDS011;61877;48.246;9.220;2023-03-11T06:12:08;10.95;;;5.00;;
73599;SDS011;61877;48.246;9.220;2023-03-11T06:14:33;10.63;;;5.00;;
73599;SDS011;61877;48.246;9.220;2023-03-11T06:16:58;10.23;;;5.07;;
73599;SDS011;61877;48.246;9.220;2023-03-11T06:19:24;8.73;;;4.90;;
73599;SDS011;61877;48.246;9.220;2023-03-11T06:21:49;8.95;;;4.22;;
73599;SDS011;61877;48.246;9.220;2023-03-11T06:24:15;8.67;;;3.90;;
73599;SDS011;61877;48.246;9.220;2023-03-11T06:26:42;7.80;;;4.40;;
73599;SDS011;61877;48.246;9.220;2023-03-11T06:29:08;8.60;;;3.97;;
73599;SDS011;61877;48.246;9.220;2023-03-11T06:31:36;8.18;;;4.43;;
73599;SDS011;61877;48.246;9.220;2023-03-11T06:34:02;9.37;;;4.07;;
73599;SDS011;61877;48.246;9.220;2023-03-11T06:36:27;8.73;;;4.00;;
73599;SDS011;61877;48.246;9.220;2023-03-11T06:38:53;7.38;;;3.90;;
73599;SDS011;61877;48.246;9.220;2023-03-11T06:41:18;9.10;;;4.27;;
73599;SDS011;61877;48.246;9.220;2023-03-11T06:43:45;7.33;;;3.73;;
73599;SDS011;61877;48.246;9.220;2023-03-11T06:46:11;7.68;;;4.40;;
73599;SDS011;61877;48.246;9.220;2023-03-11T06:48:39;8.10;;;4.40;;
73599;SDS011;61877;48.246;9.220;2023-03-11T06:51:04;8.00;;;4.43;;
73599;SDS011;61877;48.246;9.220;2023-03-11T06:53:30;8.18;;;4.22;;
73599;SDS011;61877;48.246;9.220;2023-03-11T06:55:56;7.47;;;3.80;;
73599;SDS011;61877;48.246;9.220;2023-03-11T06:58:22;6.72;;;4.13;;
73599;SDS011;61877;48.246;9.220;2023-03-11T07:00:49;7.50;;;4.17;;
73599;SDS011;61877;48.246;9.220;2023-03-11T07:03:14;9.10;;;3.97;;
73599;SDS011;61877;48.246;9.220;2023-03-11T07:05:40;8.53;;;4.17;;
73599;SDS011;61877;48.246;9.220;2023-03-11T07:08:05;6.70;;;3.77;;
73599;SDS011;61877;48.246;9.220;2023-03-11T07:10:31;6.65;;;3.67;;
73599;SDS011;61877;48.246;9.220;2023-03-11T07:12:56;8.10;;;3.60;;
73599;SDS011;61877;48.246;9.220;2023-03-11T07:15:21;7.60;;;3.83;;
73599;SDS011;61877;48.246;9.220;2023-03-11T07:17:48;8.33;;;4.20;;
73599;SDS011;61877;48.246;9.220;2023-03-11T07:20:14;10.18;;;4.28;;
73599;SDS011;61877;48.246;9.220;2023-03-11T07:22:39;7.80;;;4.10;;
73599;SDS011;61877;48.246;9.220;2023-03-11T07:25:04;7.97;;;4.33;;
73599;SDS011;61877;48.246;9.220;2023-03-11T07:27:30;9.57;;;4.50;;
73599;SDS011;61877;48.246;9.220;2023-03-11T07:29:55;20.67;;;8.57;;
73599;SDS011;61877;48.246;9.220;2023-03-11T07:32:21;16.60;;;7.27;;
73599;SDS011;61877;48.246;9.220;2023-03-11T07:34:47;11.63;;;5.50;;
73599;SDS011;61877;48.246;9.220;2023-03-11T07:37:13;9.80;;;5.18;;
73599;SDS011;61877;48.246;9.220;2023-03-11T07:39:38;10.07;;;4.90;;
73599;SDS011;61877;48.246;9.220;2023-03-11T07:42:04;8.57;;;4.80;;
73599;SDS011;61877;48.246;9.220;2023-03-11T07:44:29;8.80;;;4.63;;
73599;SDS011;61877;48.246;9.220;2023-03-11T07:46:55;8.60;;;4.50;;
73599;SDS011;61877;48.246;9.220;2023-03-11T07:49:20;10.40;;;4.27;;
73599;SDS011;61877;48.246;9.220;2023-03-11T07:51:47;8.40;;;3.70;;
73599;SDS011;61877;48.246;9.220;2023-03-11T07:54:12;9.30;;;4.75;;
73599;SDS011;61877;48.246;9.220;2023-03-11T07:56:37;9.43;;;4.90;;
73599;SDS011;61877;48.246;9.220;2023-03-11T07:59:03;11.27;;;4.53;;
73599;SDS011;61877;48.246;9.220;2023-03-11T08:01:29;9.02;;;4.45;;
73599;SDS011;61877;48.246;9.220;2023-03-11T08:03:56;8.32;;;4.10;;
73599;SDS011;61877;48.246;9.220;2023-03-11T08:06:22;7.33;;;4.07;;
73599;SDS011;61877;48.246;9.220;2023-03-11T08:08:50;8.40;;;4.90;;
73599;SDS011;61877;48.246;9.220;2023-03-11T08:11:15;9.38;;;4.28;;
73599;SDS011;61877;48.246;9.220;2023-03-11T08:13:42;7.55;;;3.90;;
73599;SDS011;61877;48.246;9.220;2023-03-11T08:16:09;8.93;;;4.50;;
73599;SDS011;61877;48.246;9.220;2023-03-11T08:18:36;10.60;;;5.30;;
73599;SDS011;61877;48.246;9.220;2023-03-11T08:21:03;7.90;;;4.00;;
73599;SDS011;61877;48.246;9.220;2023-03-11T08:23:29;11.98;;;5.00;;
73599;SDS011;61877;48.246;9.220;2023-03-11T08:25:56;9.57;;;4.13;;
73599;SDS011;61877;48.246;9.220;2023-03-11T08:28:21;8.13;;;4.43;;
73599;SDS011;61877;48.246;9.220;2023-03-11T08:30:46;8.87;;;4.40;;
73599;SDS011;61877;48.246;9.220;2023-03-11T08:33:12;8.70;;;3.80;;
73599;SDS011;61877;48.246;9.220;2023-03-11T08:35:37;8.13;;;3.47;;
73599;SDS011;61877;48.246;9.220;2023-03-11T08:38:02;7.03;;;3.13;;
73599;SDS011;61877;48.246;9.220;2023-03-11T08:40:28;11.80;;;5.43;;
73599;SDS011;61877;48.246;9.220;2023-03-11T08:42:55;23.73;;;10.07;;
73599;SDS011;61877;48.246;9.220;2023-03-11T08:45:20;9.10;;;4.50;;
73599;SDS011;61877;48.246;9.220;2023-03-11T08:47:46;9.67;;;3.77;;
73599;SDS011;61877;48.246;9.220;2023-03-11T08:50:12;10.80;;;4.60;;
73599;SDS011;61877;48.246;9.220;2023-03-11T08:52:39;12.38;;;4.40;;
73599;SDS011;61877;48.246;9.220;2023-03-11T08:55:06;8.20;;;3.93;;
73599;SDS011;61877;48.246;9.220;2023-03-11T08:57:32;8.90;;;4.15;;
73599;SDS011;61877;48.246;9.220;2023-03-11T08:59:59;12.40;;;5.00;;
73599;SDS011;61877;48.246;9.220;2023-03-11T09:02:24;6.10;;;2.70;;
73599;SDS011;61877;48.246;9.220;2023-03-11T09:04:49;9.57;;;3.45;;
73599;SDS011;61877;48.246;9.220;2023-03-11T09:07:15;11.37;;;4.50;;
73599;SDS011;61877;48.246;9.220;2023-03-11T09:09:40;12.60;;;4.67;;
73599;SDS011;61877;48.246;9.220;2023-03-11T09:12:06;7.93;;;2.92;;
73599;SDS011;61877;48.246;9.220;2023-03-11T09:14:32;6.33;;;2.57;;
73599;SDS011;61877;48.246;9.220;2023-03-11T09:16:59;5.82;;;2.25;;
73599;SDS011;61877;48.246;9.220;2023-03-11T09:19:25;6.53;;;2.70;;
73599;SDS011;61877;48.246;9.220;2023-03-11T09:21:50;5.93;;;2.67;;
73599;SDS011;61877;48.246;9.220;2023-03-11T09:24:16;6.63;;;2.70;;
73599;SDS011;61877;48.246;9.220;2023-03-11T09:26:41;7.17;;;3.00;;
73599;SDS011;61877;48.246;9.220;2023-03-11T09:29:06;10.33;;;3.20;;
73599;SDS011;61877;48.246;9.220;2023-03-11T09:31:32;7.00;;;2.70;;
73599;SDS011;61877;48.246;9.220;2023-03-11T09:33:58;7.30;;;3.10;;
73599;SDS011;61877;48.246;9.220;2023-03-11T09:36:24;7.07;;;2.83;;
73599;SDS011;61877;48.246;9.220;2023-03-11T09:38:49;7.05;;;2.92;;
73599;SDS011;61877;48.246;9.220;2023-03-11T09:41:18;7.43;;;2.63;;
73599;SDS011;61877;48.246;9.220;2023-03-11T09:43:53;6.57;;;3.15;;
73599;SDS011;61877;48.246;9.220;2023-03-11T09:46:30;6.67;;;3.10;;
73599;SDS011;61877;48.246;9.220;2023-03-11T09:49:08;6.45;;;2.42;;
73599;SDS011;61877;48.246;9.220;2023-03-11T09:51:42;6.10;;;2.70;;
73599;SDS011;61877;48.246;9.220;2023-03-11T09:54:15;5.72;;;2.55;;
73599;SDS011;61877;48.246;9.220;2023-03-11T09:56:42;6.10;;;2.60;;
73599;SDS011;61877;48.246;9.220;2023-03-11T09:59:12;6.07;;;2.17;;
73599;SDS011;61877;48.246;9.220;2023-03-11T10:01:41;5.88;;;2.45;;
73599;SDS011;61877;48.246;9.220;2023-03-11T10:04:11;7.18;;;2.60;;
73599;SDS011;61877;48.246;9.220;2023-03-11T10:06:40;6.38;;;2.47;;
73599;SDS011;61877;48.246;9.220;2023-03-11T10:09:13;6.00;;;2.30;;
73599;SDS011;61877;48.246;9.220;2023-03-11T10:11:55;6.20;;;2.57;;
73599;SDS011;61877;48.246;9.220;2023-03-11T10:14:34;5.88;;;2.13;;
73599;SDS011;61877;48.246;9.220;2023-03-11T10:17:11;7.13;;;2.65;;
73599;SDS011;61877;48.246;9.220;2023-03-11T10:19:45;6.15;;;2.20;;
73599;SDS011;61877;48.246;9.220;2023-03-11T10:22:19;6.00;;;2.50;;
73599;SDS011;61877;48.246;9.220;2023-03-11T10:24:56;6.30;;;1.90;;
73599;SDS011;61877;48.246;9.220;2023-03-11T10:27:27;6.18;;;2.33;;
73599;SDS011;61877;48.246;9.220;2023-03-11T10:29:56;5.50;;;2.00;;
73599;SDS011;61877;48.246;9.220;2023-03-11T10:32:28;5.35;;;2.22;;
73599;SDS011;61877;48.246;9.220;2023-03-11T10:35:04;6.20;;;2.30;;
73599;SDS011;61877;48.246;9.220;2023-03-11T10:37:40;6.03;;;2.00;;
73599;SDS011;61877;48.246;9.220;2023-03-11T10:40:14;5.38;;;2.13;;
73599;SDS011;61877;48.246;9.220;2023-03-11T10:42:45;5.82;;;2.20;;
73599;SDS011;61877;48.246;9.220;2023-03-11T10:45:12;5.10;;;1.95;;
73599;SDS011;61877;48.246;9.220;2023-03-11T10:47:38;5.55;;;2.00;;
73599;SDS011;61877;48.246;9.220;2023-03-11T10:50:05;6.17;;;1.80;;
73599;SDS011;61877;48.246;9.220;2023-03-11T10:52:30;6.65;;;2.15;;
73599;SDS011;61877;48.246;9.220;2023-03-11T10:55:00;5.67;;;2.10;;
73599;SDS011;61877;48.246;9.220;2023-03-11T10:57:27;6.50;;;2.35;;
73599;SDS011;61877;48.246;9.220;2023-03-11T10:59:57;6.18;;;2.08;;
73599;SDS011;61877;48.246;9.220;2023-03-11T11:02:24;5.25;;;2.10;;
73599;SDS011;61877;48.246;9.220;2023-03-11T11:05:07;6.15;;;2.28;;
73599;SDS011;61877;48.246;9.220;2023-03-11T11:07:50;6.03;;;2.10;;
73599;SDS011;61877;48.246;9.220;2023-03-11T11:10:26;6.35;;;2.40;;
73599;SDS011;61877;48.246;9.220;2023-03-11T11:12:53;5.50;;;2.20;;
73599;SDS011;61877;48.246;9.220;2023-03-11T11:15:20;6.20;;;2.25;;
73599;SDS011;61877;48.246;9.220;2023-03-11T11:17:46;6.32;;;2.30;;
73599;SDS011;61877;48.246;9.220;2023-03-11T11:20:14;5.47;;;2.20;;
73599;SDS011;61877;48.246;9.220;2023-03-11T11:22:46;6.53;;;2.17;;
73599;SDS011;61877;48.246;9.220;2023-03-11T11:25:28;6.32;;;2.20;;
73599;SDS011;61877;48.246;9.220;2023-03-11T11:27:56;7.13;;;2.80;;
73599;SDS011;61877;48.246;9.220;2023-03-11T11:30:23;6.03;;;2.30;;
73599;SDS011;61877;48.246;9.220;2023-03-11T11:32:49;6.40;;;2.30;;
73599;SDS011;61877;48.246;9.220;2023-03-11T11:35:16;6.30;;;2.43;;
73599;SDS011;61877;48.246;9.220;2023-03-11T11:37:42;6.07;;;2.35;;
73599;SDS011;61877;48.246;9.220;2023-03-11T11:40:16;9.02;;;2.33;;
73599;SDS011;61877;48.246;9.220;2023-03-11T11:42:48;6.30;;;2.20;;
73599;SDS011;61877;48.246;9.220;2023-03-11T11:45:18;6.38;;;2.20;;
73599;SDS011;61877;48.246;9.220;2023-03-11T11:47:51;5.47;;;1.80;;
73599;SDS011;61877;48.246;9.220;2023-03-11T11:50:25;6.20;;;2.13;;
73599;SDS011;61877;48.246;9.220;2023-03-11T11:52:54;6.65;;;2.10;;
73599;SDS011;61877;48.246;9.220;2023-03-11T11:55:26;5.68;;;2.35;;
73599;SDS011;61877;48.246;9.220;2023-03-11T11:57:53;5.88;;;2.00;;
73599;SDS011;61877;48.246;9.220;2023-03-11T12:00:19;8.43;;;3.40;;
73599;SDS011;61877;48.246;9.220;2023-03-11T12:02:58;6.32;;;2.28;;
73599;SDS011;61877;48.246;9.220;2023-03-11T12:05:36;5.20;;;1.73;;
73599;SDS011;61877;48.246;9.220;2023-03-11T12:08:09;6.28;;;1.92;;
73599;SDS011;61877;48.246;9.220;2023-03-11T12:10:43;5.28;;;1.75;;
73599;SDS011;61877;48.246;9.220;2023-03-11T12:16:13;5.25;;;1.88;;
73599;SDS011;61877;48.246;9.220;2023-03-11T12:18:48;6.17;;;2.13;;
73599;SDS011;61877;48.246;9.220;2023-03-11T12:21:24;5.53;;;1.83;;
73599;SDS011;61877;48.246;9.220;2023-03-11T12:24:06;5.65;;;1.85;;
73599;SDS011;61877;48.246;9.220;2023-03-11T12:26:46;5.53;;;2.17;;
73599;SDS011;61877;48.246;9.220;2023-03-11T12:29:15;5.88;;;2.03;;
73599;SDS011;61877;48.246;9.220;2023-03-11T12:31:47;6.03;;;1.67;;
73599;SDS011;61877;48.246;9.220;2023-03-11T12:34:13;6.35;;;1.77;;
73599;SDS011;61877;48.246;9.220;2023-03-11T12:36:44;5.88;;;2.10;;
73599;SDS011;61877;48.246;9.220;2023-03-11T12:39:18;6.22;;;2.10;;
73599;SDS011;61877;48.246;9.220;2023-03-11T12:41:45;5.30;;;2.00;;
73599;SDS011;61877;48.246;9.220;2023-03-11T12:44:21;6.57;;;1.95;;
73599;SDS011;61877;48.246;9.220;2023-03-11T12:49:47;5.10;;;1.60;;
73599;SDS011;61877;48.246;9.220;2023-03-11T12:55:23;6.03;;;1.80;;
73599;SDS011;61877;48.246;9.220;2023-03-11T12:58:00;5.60;;;2.00;;
73599;SDS011;61877;48.246;9.220;2023-03-11T13:00:59;5.60;;;1.63;;
73599;SDS011;61877;48.246;9.220;2023-03-11T13:03:41;5.72;;;1.73;;
73599;SDS011;61877;48.246;9.220;2023-03-11T13:06:15;6.07;;;1.80;;
73599;SDS011;61877;48.246;9.220;2023-03-11T13:08:54;5.25;;;1.40;;
73599;SDS011;61877;48.246;9.220;2023-03-11T13:11:25;5.30;;;1.90;;
73599;SDS011;61877;48.246;9.220;2023-03-11T13:14:19;5.00;;;1.60;;
73599;SDS011;61877;48.246;9.220;2023-03-11T13:16:50;4.97;;;1.60;;
73599;SDS011;61877;48.246;9.220;2023-03-11T13:19:32;5.40;;;1.80;;
73599;SDS011;61877;48.246;9.220;2023-03-11T13:22:00;5.60;;;1.60;;
73599;SDS011;61877;48.246;9.220;2023-03-11T13:24:46;6.20;;;2.10;;
73599;SDS011;61877;48.246;9.220;2023-03-11T13:27:16;6.25;;;1.90;;
73599;SDS011;61877;48.246;9.220;2023-03-11T13:29:54;6.80;;;1.70;;
73599;SDS011;61877;48.246;9.220;2023-03-11T13:32:27;6.07;;;1.90;;
73599;SDS011;61877;48.246;9.220;2023-03-11T13:35:09;5.28;;;1.70;;
73599;SDS011;61877;48.246;9.220;2023-03-11T13:37:47;5.20;;;1.67;;
73599;SDS011;61877;48.246;9.220;2023-03-11T13:40:37;4.93;;;1.60;;
73599;SDS011;61877;48.246;9.220;2023-03-11T13:43:04;5.80;;;1.50;;
73599;SDS011;61877;48.246;9.220;2023-03-11T13:45:35;5.60;;;1.60;;
73599;SDS011;61877;48.246;9.220;2023-03-11T13:48:03;5.63;;;1.90;;
73599;SDS011;61877;48.246;9.220;2023-03-11T13:50:33;6.43;;;2.10;;
73599;SDS011;61877;48.246;9.220;2023-03-11T13:53:01;5.95;;;1.80;;
73599;SDS011;61877;48.246;9.220;2023-03-11T13:55:33;5.90;;;1.70;;
73599;SDS011;61877;48.246;9.220;2023-03-11T13:58:12;6.07;;;1.77;;
73599;SDS011;61877;48.246;9.220;2023-03-11T14:00:41;5.97;;;1.73;;
73599;SDS011;61877;48.246;9.220;2023-03-11T14:03:12;5.90;;;1.57;;
73599;SDS011;61877;48.246;9.220;2023-03-11T14:05:39;4.70;;;1.50;;
73599;SDS011;61877;48.246;9.220;2023-03-11T14:08:12;5.68;;;1.58;;
73599;SDS011;61877;48.246;9.220;2023-03-11T14:10:50;5.75;;;1.77;;
73599;SDS011;61877;48.246;9.220;2023-03-11T14:13:17;6.22;;;2.10;;
73599;SDS011;61877;48.246;9.220;2023-03-11T14:15:55;5.67;;;1.63;;
73599;SDS011;61877;48.246;9.220;2023-03-11T14:18:26;5.30;;;1.55;;
73599;SDS011;61877;48.246;9.220;2023-03-11T14:20:53;5.30;;;1.40;;
73599;SDS011;61877;48.246;9.220;2023-03-11T14:23:19;5.37;;;1.70;;
73599;SDS011;61877;48.246;9.220;2023-03-11T14:25:44;5.38;;;1.48;;
73599;SDS011;61877;48.246;9.220;2023-03-11T14:28:12;5.40;;;1.75;;
73599;SDS011;61877;48.246;9.220;2023-03-11T14:30:55;5.60;;;1.83;;
73599;SDS011;61877;48.246;9.220;2023-03-11T14:33:21;5.07;;;1.55;;
73599;SDS011;61877;48.246;9.220;2023-03-11T14:35:50;6.75;;;1.70;;
73599;SDS011;61877;48.246;9.220;2023-03-11T14:38:20;5.90;;;1.67;;
73599;SDS011;61877;48.246;9.220;2023-03-11T14:40:48;5.40;;;1.70;;
73599;SDS011;61877;48.246;9.220;2023-03-11T14:43:16;5.30;;;1.90;;
73599;SDS011;61877;48.246;9.220;2023-03-11T14:45:43;5.85;;;1.60;;
73599;SDS011;61877;48.246;9.220;2023-03-11T14:48:11;5.80;;;1.90;;
73599;SDS011;61877;48.246;9.220;2023-03-11T14:50:39;5.88;;;1.80;;
73599;SDS011;61877;48.246;9.220;2023-03-11T14:53:11;6.45;;;1.83;;
73599;SDS011;61877;48.246;9.220;2023-03-11T14:55:42;5.38;;;1.70;;
73599;SDS011;61877;48.246;9.220;2023-03-11T14:58:13;6.43;;;2.00;;
73599;SDS011;61877;48.246;9.220;2023-03-11T15:00:45;5.07;;;1.50;;
73599;SDS011;61877;48.246;9.220;2023-03-11T15:03:18;6.00;;;2.15;;